createdAt,value
2022-08-02T00:02:21.139Z,21.30
2022-08-02T00:05:23.834Z,21.22
2022-08-02T00:08:26.526Z,21.16
2022-08-02T00:11:30.814Z,21.10
2022-08-02T00:14:33.840Z,21.04
2022-08-02T00:17:36.670Z,21.01
2022-08-02T00:20:39.434Z,21.03
2022-08-02T00:24:05.033Z,21.03
2022-08-02T00:27:09.605Z,21.01
2022-08-02T00:30:13.288Z,21.03
2022-08-02T00:33:16.015Z,21.03
2022-08-02T00:36:38.693Z,21.00
2022-08-02T00:39:42.891Z,20.97
2022-08-02T00:42:46.920Z,20.98
2022-08-02T00:46:02.297Z,20.95
2022-08-02T00:49:06.486Z,20.89
2022-08-02T00:52:09.816Z,20.84
2022-08-02T00:55:12.744Z,20.84
2022-08-02T00:58:21.802Z,20.87
2022-08-02T01:01:38.474Z,20.90
2022-08-02T01:05:00.527Z,20.87
2022-08-02T01:08:04.301Z,20.86
2022-08-02T01:11:07.188Z,20.82
2022-08-02T01:14:13.843Z,20.79
2022-08-02T01:17:21.593Z,20.75
2022-08-02T01:20:50.618Z,20.76
2022-08-02T01:24:04.620Z,20.81
2022-08-02T01:27:26.750Z,20.81
2022-08-02T01:30:33.710Z,20.89
2022-08-02T01:33:42.725Z,20.90
2022-08-02T01:36:49.289Z,20.89
2022-08-02T01:39:55.418Z,20.87
2022-08-02T01:42:58.882Z,20.88
2022-08-02T01:46:05.234Z,20.84
2022-08-02T01:49:13.368Z,20.83
2022-08-02T01:52:23.457Z,20.81
2022-08-02T01:55:35.102Z,20.82
2022-08-02T01:58:53.434Z,20.83
2022-08-02T02:02:00.898Z,20.83
2022-08-02T02:05:06.481Z,20.77
2022-08-02T02:08:11.519Z,20.76
2022-08-02T02:12:05.224Z,20.74
2022-08-02T02:14:38.455Z,20.69
2022-08-02T02:17:53.170Z,20.70
2022-08-02T02:21:08.211Z,20.65
2022-08-02T02:24:11.962Z,20.67
2022-08-02T02:27:17.474Z,20.74
2022-08-02T02:30:20.641Z,20.72
2022-08-02T02:33:29.460Z,20.72
2022-08-02T02:36:34.405Z,20.69
2022-08-02T02:39:41.066Z,20.62
2022-08-02T02:42:49.469Z,20.58
2022-08-02T02:45:54.385Z,20.59
2022-08-02T02:48:59.073Z,20.56
2022-08-02T02:52:03.611Z,20.49
2022-08-02T02:55:07.623Z,20.42
2022-08-02T02:58:11.409Z,20.36
2022-08-02T03:01:53.198Z,20.32
2022-08-02T03:04:58.252Z,20.24
2022-08-02T03:08:01.163Z,20.19
2022-08-02T03:11:04.607Z,20.16
2022-08-02T03:14:11.009Z,20.16
2022-08-02T03:17:13.794Z,20.15
2022-08-02T03:20:19.702Z,20.11
2022-08-02T03:23:22.399Z,19.96
2022-08-02T03:26:25.156Z,19.86
2022-08-02T03:29:30.406Z,19.74
2022-08-02T03:32:36.423Z,19.79
2022-08-02T03:35:43.025Z,19.79
2022-08-02T03:38:47.039Z,19.74
2022-08-02T03:41:51.049Z,19.73
2022-08-02T03:44:54.990Z,19.64
2022-08-02T03:47:59.097Z,19.61
2022-08-02T03:51:03.585Z,19.57
2022-08-02T03:54:07.052Z,19.52
2022-08-02T03:57:11.389Z,19.48
2022-08-02T04:00:19.417Z,19.47
2022-08-02T04:03:22.224Z,19.45
2022-08-02T04:06:27.183Z,19.39
2022-08-02T04:09:31.245Z,19.34
2022-08-02T04:12:33.937Z,19.31
2022-08-02T04:15:38.011Z,19.31
2022-08-02T04:18:44.609Z,19.29
2022-08-02T04:21:52.553Z,19.29
2022-08-02T04:24:59.971Z,19.31
2022-08-02T04:28:17.732Z,19.29
2022-08-02T04:31:22.116Z,19.32
2022-08-02T04:34:24.891Z,19.31
2022-08-02T04:37:29.372Z,19.34
2022-08-02T04:40:32.122Z,19.36
2022-08-02T04:43:40.733Z,19.34
2022-08-02T04:46:49.587Z,19.37
2022-08-02T04:50:03.859Z,19.38
2022-08-02T04:53:16.808Z,19.44
2022-08-02T04:56:23.414Z,19.51
2022-08-02T04:59:30.216Z,19.46
2022-08-02T05:02:41.734Z,19.49
2022-08-02T05:05:50.479Z,19.63
2022-08-02T05:09:01.999Z,19.71
2022-08-02T05:12:14.509Z,19.83
2022-08-02T05:15:23.416Z,19.95
2022-08-02T05:18:32.116Z,20.03
2022-08-02T05:21:42.019Z,20.15
2022-08-02T05:24:57.279Z,20.29
2022-08-02T05:28:09.598Z,20.41
2022-08-02T05:31:19.974Z,20.55
2022-08-02T05:34:33.504Z,20.70
2022-08-02T05:37:43.665Z,20.72
2022-08-02T05:40:57.507Z,20.80
2022-08-02T05:44:06.519Z,20.88
2022-08-02T05:47:14.485Z,21.01
2022-08-02T05:50:24.352Z,21.14
2022-08-02T05:53:41.111Z,21.27
2022-08-02T05:56:58.231Z,21.32
2022-08-02T06:00:11.334Z,21.34
2022-08-02T06:03:26.811Z,21.43
2022-08-02T06:06:39.847Z,21.44
2022-08-02T06:09:56.786Z,21.54
2022-08-02T06:13:16.132Z,21.65
2022-08-02T06:16:32.254Z,21.72
2022-08-02T06:19:52.366Z,21.86
2022-08-02T06:23:02.204Z,22.01
2022-08-02T06:26:13.910Z,22.19
2022-08-02T06:29:26.918Z,22.28
2022-08-02T06:32:48.798Z,22.36
2022-08-02T06:36:05.463Z,22.52
2022-08-02T06:39:15.417Z,22.96
2022-08-02T06:42:27.227Z,23.36
2022-08-02T06:45:33.024Z,23.62
2022-08-02T06:48:36.930Z,23.68
2022-08-02T06:51:39.698Z,23.62
2022-08-02T06:54:42.464Z,23.70
2022-08-02T06:57:45.146Z,23.84
2022-08-02T07:00:49.604Z,24.04
2022-08-02T07:03:52.381Z,24.16
2022-08-02T07:06:57.281Z,24.25
2022-08-02T07:10:01.964Z,24.43
2022-08-02T07:13:04.814Z,24.62
2022-08-02T07:16:09.093Z,24.81
2022-08-02T07:19:11.848Z,24.88
2022-08-02T07:22:15.119Z,25.11
2022-08-02T07:25:18.323Z,25.37
2022-08-02T07:28:24.493Z,25.65
2022-08-02T07:31:28.950Z,25.88
2022-08-02T07:34:31.597Z,25.97
2022-08-02T07:37:55.500Z,26.08
2022-08-02T07:40:58.062Z,26.17
2022-08-02T07:44:00.780Z,26.25
2022-08-02T07:47:05.574Z,26.28
2022-08-02T07:50:09.838Z,26.43
2022-08-02T07:53:12.526Z,26.48
2022-08-02T07:56:15.326Z,26.70
2022-08-02T07:59:18.222Z,27.01
2022-08-02T08:02:24.553Z,27.20
2022-08-02T08:05:27.286Z,27.34
2022-08-02T08:08:30.070Z,27.43
2022-08-02T08:11:32.859Z,27.51
2022-08-02T08:14:35.685Z,27.56
2022-08-02T08:17:39.793Z,27.63
2022-08-02T08:20:42.751Z,27.68
2022-08-02T08:23:45.630Z,27.71
2022-08-02T08:26:48.318Z,27.72
2022-08-02T08:29:51.604Z,27.76
2022-08-02T08:32:55.688Z,27.75
2022-08-02T08:35:59.266Z,27.71
2022-08-02T08:39:05.931Z,27.80
2022-08-02T08:42:11.168Z,27.86
2022-08-02T08:45:13.959Z,28.00
2022-08-02T08:48:30.177Z,28.13
2022-08-02T08:51:38.378Z,28.12
2022-08-02T08:54:42.891Z,28.19
2022-08-02T08:57:46.363Z,28.20
2022-08-02T09:00:49.186Z,28.13
2022-08-02T09:03:55.219Z,27.88
2022-08-02T09:06:58.052Z,27.90
2022-08-02T09:10:00.744Z,28.06
2022-08-02T09:13:37.899Z,28.28
2022-08-02T09:16:34.694Z,28.63
2022-08-02T09:19:39.112Z,28.88
2022-08-02T09:23:07.390Z,28.82
2022-08-02T09:26:11.831Z,28.99
2022-08-02T09:29:15.226Z,28.86
2022-08-02T09:32:18.697Z,28.82
2022-08-02T09:36:07.270Z,28.75
2022-08-02T09:39:01.424Z,29.02
2022-08-02T09:42:10.526Z,29.09
2022-08-02T09:45:13.675Z,29.22
2022-08-02T09:48:16.410Z,29.03
2022-08-02T09:51:22.438Z,28.41
2022-08-02T09:54:27.632Z,28.02
2022-08-02T09:57:33.508Z,27.55
2022-08-02T10:00:52.394Z,27.24
2022-08-02T10:03:57.478Z,26.97
2022-08-02T10:07:04.172Z,26.84
2022-08-02T10:10:08.277Z,26.65
2022-08-02T10:13:11.887Z,26.60
2022-08-02T10:16:24.346Z,26.58
2022-08-02T10:20:00.440Z,26.99
2022-08-02T10:22:52.002Z,27.70
2022-08-02T10:25:56.741Z,28.38
2022-08-02T10:29:03.781Z,28.90
2022-08-02T10:32:13.111Z,29.31
2022-08-02T10:35:25.621Z,29.62
2022-08-02T10:38:32.135Z,30.00
2022-08-02T10:41:51.188Z,30.14
2022-08-02T10:45:11.591Z,30.22
2022-08-02T10:48:16.626Z,30.48
2022-08-02T10:51:24.587Z,30.54
2022-08-02T10:54:35.062Z,30.34
2022-08-02T10:57:40.026Z,29.89
2022-08-02T11:00:53.981Z,29.65
2022-08-02T11:04:10.255Z,29.57
2022-08-02T11:07:19.666Z,29.18
2022-08-02T11:10:38.505Z,28.85
2022-08-02T11:14:07.882Z,28.54
2022-08-02T11:17:14.937Z,28.24
2022-08-02T11:20:23.471Z,28.08
2022-08-02T11:23:44.360Z,28.17
2022-08-02T11:26:58.680Z,28.68
2022-08-02T11:30:16.845Z,28.93
2022-08-02T11:33:26.343Z,29.11
2022-08-02T11:36:35.310Z,28.89
2022-08-02T11:39:43.843Z,28.90
2022-08-02T11:42:52.005Z,28.94
2022-08-02T11:46:07.023Z,29.07
2022-08-02T11:49:17.807Z,29.44
2022-08-02T11:52:35.237Z,29.40
2022-08-02T11:55:46.971Z,29.45
2022-08-02T11:59:14.368Z,29.62
2022-08-02T12:02:25.633Z,29.81
2022-08-02T12:06:05.327Z,30.23
2022-08-02T12:09:13.076Z,30.73
2022-08-02T12:12:28.420Z,31.02
2022-08-02T12:15:50.797Z,31.36
2022-08-02T12:19:14.425Z,31.41
2022-08-02T12:22:30.183Z,30.80
2022-08-02T12:25:41.247Z,30.32
2022-08-02T12:28:50.860Z,29.89
2022-08-02T12:32:07.622Z,29.99
2022-08-02T12:35:26.328Z,30.53
2022-08-02T12:38:38.157Z,30.99
2022-08-02T12:41:54.694Z,31.32
2022-08-02T12:45:13.625Z,31.57
2022-08-02T12:48:37.553Z,31.80
2022-08-02T12:51:59.049Z,32.04
2022-08-02T12:55:22.438Z,31.94
2022-08-02T12:58:44.393Z,31.49
2022-08-02T13:01:59.250Z,31.43
2022-08-02T13:05:11.822Z,31.33
2022-08-02T13:08:22.541Z,31.18
2022-08-02T13:11:30.316Z,31.33
2022-08-02T13:14:42.051Z,31.66
2022-08-02T13:17:55.813Z,32.03
2022-08-02T13:21:07.456Z,32.28
2022-08-02T13:24:38.135Z,32.47
2022-08-02T13:27:47.878Z,32.59
2022-08-02T13:31:06.031Z,32.48
2022-08-02T13:34:24.870Z,32.72
2022-08-02T13:37:33.399Z,32.83
2022-08-02T13:41:04.678Z,32.84
2022-08-02T13:44:11.564Z,32.80
2022-08-02T13:47:35.774Z,32.74
2022-08-02T13:50:42.860Z,32.87
2022-08-02T13:53:52.512Z,33.09
2022-08-02T13:56:58.603Z,33.02
2022-08-02T14:00:06.464Z,33.08
2022-08-02T14:03:15.618Z,32.78
2022-08-02T14:06:21.966Z,32.31
2022-08-02T14:09:33.499Z,32.21
2022-08-02T14:12:43.161Z,32.44
2022-08-02T14:15:50.263Z,32.52
2022-08-02T14:18:58.705Z,32.34
2022-08-02T14:22:21.083Z,32.04
2022-08-02T14:25:33.463Z,31.97
2022-08-02T14:28:46.775Z,31.83
2022-08-02T14:31:58.699Z,31.77
2022-08-02T14:35:06.463Z,32.07
2022-08-02T14:38:16.144Z,32.40
2022-08-02T14:41:25.181Z,32.70
2022-08-02T14:44:37.526Z,32.93
2022-08-02T14:47:47.848Z,33.06
2022-08-02T14:50:57.473Z,33.10
2022-08-02T14:54:06.396Z,33.05
2022-08-02T14:57:22.079Z,33.02
2022-08-02T15:00:31.657Z,33.07
2022-08-02T15:03:47.287Z,33.10
2022-08-02T15:06:54.670Z,33.21
2022-08-02T15:10:03.872Z,33.17
2022-08-02T15:13:13.005Z,33.18
2022-08-02T15:16:19.853Z,33.32
2022-08-02T15:19:56.511Z,33.41
2022-08-02T15:22:53.274Z,33.17
2022-08-02T15:26:03.230Z,32.80
2022-08-02T15:29:11.868Z,32.65
2022-08-02T15:32:20.263Z,32.69
2022-08-02T15:35:26.469Z,32.68
2022-08-02T15:38:33.531Z,32.78
2022-08-02T15:41:43.706Z,32.83
2022-08-02T15:44:59.133Z,32.83
2022-08-02T15:48:12.693Z,32.73
2022-08-02T15:55:22.932Z,32.55
2022-08-02T15:58:44.220Z,32.56
2022-08-02T16:01:53.183Z,32.46
2022-08-02T16:05:14.158Z,32.37
2022-08-02T16:08:29.878Z,32.43
2022-08-02T16:11:35.694Z,32.28
2022-08-02T16:14:48.005Z,32.12
2022-08-02T16:18:12.912Z,32.00
2022-08-02T16:21:26.888Z,31.76
2022-08-02T16:24:56.402Z,31.72
2022-08-02T16:28:08.932Z,31.73
2022-08-02T16:31:19.682Z,31.71
2022-08-02T16:35:07.063Z,31.67
2022-08-02T16:38:10.439Z,31.53
2022-08-02T16:41:20.673Z,31.41
2022-08-02T16:44:30.465Z,31.25
2022-08-02T16:47:42.847Z,31.09
2022-08-02T16:51:03.102Z,30.89
2022-08-02T16:54:11.724Z,30.77
2022-08-02T16:57:20.118Z,30.65
2022-08-02T17:00:32.188Z,30.56
2022-08-02T17:03:56.150Z,30.49
2022-08-02T17:07:11.147Z,30.37
2022-08-02T17:10:35.128Z,30.27
2022-08-02T17:13:53.680Z,30.13
2022-08-02T17:17:14.501Z,29.96
2022-08-02T17:20:28.577Z,29.80
2022-08-02T17:24:04.558Z,29.65
2022-08-02T17:27:07.271Z,29.53
2022-08-02T17:30:13.751Z,29.44
2022-08-02T17:33:20.312Z,29.30
2022-08-02T17:36:26.619Z,29.19
2022-08-02T17:39:44.422Z,29.04
2022-08-02T17:43:14.258Z,28.94
2022-08-02T17:46:24.927Z,28.82
2022-08-02T17:49:39.455Z,28.62
2022-08-02T17:52:53.297Z,28.42
2022-08-02T17:56:00.997Z,28.27
2022-08-02T17:59:30.650Z,28.10
2022-08-02T18:02:52.727Z,27.94
2022-08-02T18:06:03.673Z,27.82
2022-08-02T18:09:13.316Z,27.67
2022-08-02T18:12:21.301Z,27.56
2022-08-02T18:15:27.569Z,27.47
2022-08-02T18:22:19.360Z,27.26
2022-08-02T18:25:37.278Z,27.16
2022-08-02T18:33:57.984Z,26.93
2022-08-02T18:37:04.695Z,26.82
2022-08-02T18:40:57.980Z,26.67
2022-08-02T18:44:27.049Z,26.56
2022-08-02T18:48:07.351Z,26.46
2022-08-02T18:51:27.044Z,26.32
2022-08-02T18:55:17.482Z,26.26
2022-08-02T19:02:53.979Z,25.97
2022-08-02T19:07:06.959Z,25.84
2022-08-02T19:10:27.692Z,25.76
2022-08-02T19:17:55.714Z,25.55
2022-08-02T19:22:26.684Z,25.43
2022-08-02T19:25:01.523Z,25.32
2022-08-02T19:28:05.023Z,25.27
2022-08-02T19:31:11.309Z,25.15
2022-08-02T19:34:14.466Z,25.08
2022-08-02T19:37:19.094Z,25.03
2022-08-02T19:40:25.871Z,25.00
2022-08-02T19:44:23.385Z,24.94
2022-08-02T19:46:51.247Z,24.83
2022-08-02T19:49:54.829Z,24.77
2022-08-02T19:52:57.548Z,24.68
2022-08-02T19:56:03.136Z,24.63
2022-08-02T19:59:12.910Z,24.58
2022-08-02T20:02:17.179Z,24.58
2022-08-02T20:05:23.777Z,24.50
2022-08-02T20:08:31.642Z,24.45
2022-08-02T20:11:40.266Z,24.44
2022-08-02T20:18:06.725Z,24.27
2022-08-02T20:21:30.549Z,24.16
2022-08-02T20:24:33.586Z,24.02
2022-08-02T20:27:37.714Z,23.97
2022-08-02T20:30:54.991Z,23.98
2022-08-02T20:33:57.821Z,23.97
2022-08-02T20:37:00.538Z,23.88
2022-08-02T20:40:23.887Z,23.77
2022-08-02T20:43:31.433Z,23.70
2022-08-02T20:46:34.347Z,23.64
2022-08-02T20:49:58.237Z,23.58
2022-08-02T20:53:01.421Z,23.51
2022-08-02T20:56:07.025Z,23.44
2022-08-02T20:59:15.515Z,23.42
2022-08-02T21:02:19.397Z,23.38
2022-08-02T21:05:26.855Z,23.32
2022-08-02T21:08:46.264Z,23.33
2022-08-02T21:11:50.995Z,23.33
2022-08-02T21:14:55.213Z,23.27
2022-08-02T21:17:59.604Z,23.25
2022-08-02T21:21:08.845Z,23.22
2022-08-02T21:24:12.498Z,23.13
2022-08-02T21:27:53.152Z,23.10
2022-08-02T21:30:39.864Z,23.06
2022-08-02T21:37:10.150Z,22.96
2022-08-02T21:40:14.045Z,22.90
2022-08-02T21:43:16.765Z,22.84
2022-08-02T21:46:40.755Z,22.76
2022-08-02T21:50:12.708Z,22.71
2022-08-02T21:53:13.347Z,22.64
2022-08-02T21:56:21.605Z,22.66
2022-08-02T21:59:26.815Z,22.64
2022-08-02T22:02:31.323Z,22.60
2022-08-02T22:05:37.400Z,22.56
2022-08-02T22:08:40.338Z,22.56
2022-08-02T22:11:43.216Z,22.50
2022-08-02T22:14:49.779Z,22.43
2022-08-02T22:18:00.080Z,22.38
2022-08-02T22:21:03.066Z,22.30
2022-08-02T22:24:19.391Z,22.31
2022-08-02T22:28:35.182Z,22.26
2022-08-02T22:30:53.079Z,22.19
2022-08-02T22:34:26.994Z,22.17
2022-08-02T22:38:16.263Z,22.13
2022-08-02T22:40:55.416Z,22.07
2022-08-02T22:44:13.551Z,22.07
2022-08-02T22:47:24.030Z,21.99
2022-08-02T22:50:36.522Z,21.97
2022-08-02T22:53:45.035Z,21.95
2022-08-02T22:56:56.122Z,21.94
2022-08-02T22:59:08.206Z,24.36
2022-08-02T22:59:11.916Z,23.06
2022-08-02T23:00:08.531Z,21.89
2022-08-02T23:03:15.691Z,21.84
2022-08-02T23:06:27.284Z,21.80
2022-08-02T23:09:35.218Z,21.78
2022-08-02T23:12:43.021Z,21.69
2022-08-02T23:16:05.570Z,21.64
2022-08-02T23:19:29.401Z,21.58
2022-08-02T23:22:42.060Z,21.49
2022-08-02T23:25:50.400Z,21.36
2022-08-02T23:29:07.162Z,21.40
2022-08-02T23:32:15.407Z,21.40
2022-08-02T23:35:32.683Z,21.35
2022-08-02T23:38:46.676Z,21.35
2022-08-02T23:41:54.890Z,21.30
2022-08-02T23:45:04.725Z,21.26
2022-08-02T23:48:11.013Z,21.15
2022-08-02T23:51:21.928Z,21.06
2022-08-02T23:54:32.786Z,20.98
2022-08-02T23:57:39.333Z,20.97
